Time;durP1;ratioP1;P1;durP2;ratioP2;P2;SDS_P1;SDS_P2;PMS_P1;PMS_P2;Temp;Humidity;BMP_temperature;BMP_pressure;BME280_temperature;BME280_humidity;BME280_pressure;Samples;Min_cycle;Max_cycle;Signal;HPM_P1;HPM_P2
2022/04/20 00:02:38;;;;;;;9.10;5.57;;;7.20;99.90;;;;;;4951535;28;20047;-59
2022/04/20 00:05:04;;;;;;;10.15;5.70;;;7.20;99.90;;;;;;4936221;29;20039;-59
2022/04/20 00:07:30;;;;;;;8.57;5.45;;;7.20;99.90;;;;;;4954329;28;20054;-59
2022/04/20 00:09:55;;;;;;;12.35;6.20;;;7.20;99.90;;;;;;4951494;28;20055;-60
2022/04/20 00:12:21;;;;;;;10.20;5.88;;;7.20;99.90;;;;;;4954077;28;20075;-57
2022/04/20 00:14:47;;;;;;;9.20;5.32;;;7.30;99.90;;;;;;4953855;28;20802;-59
2022/04/20 00:17:12;;;;;;;9.70;5.10;;;7.30;99.90;;;;;;4954526;29;20039;-58
2022/04/20 00:19:38;;;;;;;9.07;5.72;;;7.20;99.90;;;;;;4957075;28;20119;-59
2022/04/20 00:22:04;;;;;;;9.45;5.70;;;7.20;99.90;;;;;;4953944;28;20379;-59
2022/04/20 00:24:30;;;;;;;8.82;5.40;;;7.20;99.90;;;;;;4954229;29;20409;-59
2022/04/20 00:26:55;;;;;;;9.35;5.57;;;7.20;99.90;;;;;;4951215;28;20074;-59
2022/04/20 00:29:21;;;;;;;9.02;5.53;;;7.20;99.90;;;;;;4965580;28;20121;-59
2022/04/20 00:31:46;;;;;;;9.07;5.80;;;7.20;99.90;;;;;;4955287;28;20043;-60
2022/04/20 00:34:12;;;;;;;11.82;5.22;;;7.20;99.90;;;;;;4951754;28;20043;-59
2022/04/20 00:36:38;;;;;;;9.88;5.90;;;7.20;99.90;;;;;;4952861;28;20046;-59
2022/04/20 00:39:03;;;;;;;10.48;5.70;;;7.20;99.90;;;;;;4953769;28;20039;-59
2022/04/20 00:41:30;;;;;;;9.30;5.45;;;7.20;99.90;;;;;;4954165;29;20126;-59
2022/04/20 00:43:55;;;;;;;15.00;5.93;;;7.30;99.90;;;;;;4950970;28;20653;-59
2022/04/20 00:46:23;;;;;;;13.38;6.00;;;7.30;99.90;;;;;;4953105;28;20035;-59
2022/04/20 00:48:51;;;;;;;17.30;5.95;;;7.30;99.90;;;;;;4953379;28;20043;-60
2022/04/20 00:51:17;;;;;;;9.95;5.88;;;7.30;99.90;;;;;;4954520;28;20031;-59
2022/04/20 00:53:43;;;;;;;11.02;5.70;;;7.30;99.90;;;;;;4955413;28;20040;-59
2022/04/20 00:56:08;;;;;;;11.30;5.88;;;7.40;99.90;;;;;;4953247;28;20031;-60
2022/04/20 00:58:37;;;;;;;13.55;6.03;;;7.40;99.90;;;;;;4953448;29;20478;-59
2022/04/20 01:01:03;;;;;;;10.57;6.10;;;7.40;99.90;;;;;;4951451;28;20430;-60
2022/04/20 01:03:29;;;;;;;12.52;5.93;;;7.40;99.90;;;;;;4952399;28;20039;-59
2022/04/20 01:05:54;;;;;;;16.17;6.03;;;7.40;99.90;;;;;;4953240;28;20082;-59
2022/04/20 01:08:20;;;;;;;14.00;6.60;;;7.40;99.90;;;;;;4956025;28;20045;-59
2022/04/20 01:10:46;;;;;;;10.30;6.32;;;7.30;99.90;;;;;;4954192;28;20039;-59
2022/04/20 01:13:11;;;;;;;11.57;5.97;;;7.40;99.90;;;;;;4953051;28;20414;-59
2022/04/20 01:15:37;;;;;;;10.70;6.38;;;7.30;99.90;;;;;;4953642;29;20130;-60
2022/04/20 01:18:16;;;;;;;9.68;6.03;;;7.20;99.90;;;;;;4953926;28;20066;-59
2022/04/20 01:20:43;;;;;;;19.67;6.30;;;7.30;99.90;;;;;;4955268;28;20043;-59
2022/04/20 01:23:10;;;;;;;12.45;6.25;;;7.20;99.90;;;;;;4952542;28;20086;-59
2022/04/20 01:25:37;;;;;;;10.13;6.20;;;7.20;99.90;;;;;;4949851;28;20043;-58
2022/04/20 01:28:04;;;;;;;14.63;6.95;;;7.20;99.90;;;;;;4955584;28;20070;-60
2022/04/20 01:30:30;;;;;;;9.05;6.18;;;7.20;99.90;;;;;;4953051;29;20405;-59
2022/04/20 01:32:57;;;;;;;9.02;5.85;;;7.10;99.90;;;;;;4953229;29;20047;-60
2022/04/20 01:35:23;;;;;;;14.00;7.20;;;7.10;99.90;;;;;;4950917;28;20094;-59
2022/04/20 01:37:51;;;;;;;10.35;6.47;;;7.10;99.90;;;;;;4956721;28;20050;-59
2022/04/20 01:40:18;;;;;;;14.68;6.55;;;7.10;99.90;;;;;;4957155;28;20407;-60
2022/04/20 01:42:43;;;;;;;12.20;6.57;;;7.10;99.90;;;;;;4953998;28;20529;-59
2022/04/20 01:45:09;;;;;;;12.20;6.68;;;7.00;99.90;;;;;;4956334;28;20077;-59
2022/04/20 01:47:34;;;;;;;10.23;6.35;;;7.00;99.90;;;;;;4957032;28;20039;-59
2022/04/20 01:50:00;;;;;;;10.20;6.72;;;6.90;99.90;;;;;;4957258;29;20403;-60
2022/04/20 01:52:26;;;;;;;11.05;6.25;;;6.90;99.90;;;;;;4957732;28;20043;-60
2022/04/20 01:54:51;;;;;;;11.77;6.45;;;6.80;99.90;;;;;;4955952;28;20071;-59
2022/04/20 01:57:17;;;;;;;10.70;6.18;;;6.70;99.90;;;;;;4956788;28;20042;-58
2022/04/20 01:59:42;;;;;;;12.32;6.32;;;6.60;99.90;;;;;;4953472;28;20629;-59
2022/04/20 02:04:52;;;;;;;9.95;6.70;;;6.50;99.90;;;;;;4956448;28;20059;-59
2022/04/20 02:07:17;;;;;;;11.82;6.60;;;6.40;99.90;;;;;;4954618;28;20035;-59
2022/04/20 02:09:43;;;;;;;10.50;6.35;;;6.40;99.90;;;;;;4964354;28;20122;-59
2022/04/20 02:12:09;;;;;;;10.55;6.50;;;6.30;99.90;;;;;;4956000;28;20031;-59
2022/04/20 02:14:34;;;;;;;12.52;7.00;;;6.40;99.90;;;;;;4952985;28;20035;-59
2022/04/20 02:17:00;;;;;;;11.85;6.78;;;6.40;99.90;;;;;;4960675;28;20474;-59
2022/04/20 02:19:25;;;;;;;12.48;6.80;;;6.40;99.90;;;;;;4954362;28;20673;-59
2022/04/20 02:21:51;;;;;;;10.43;6.35;;;6.50;99.90;;;;;;4956170;29;20039;-60
2022/04/20 02:24:17;;;;;;;16.20;6.95;;;6.50;99.90;;;;;;4956027;28;20379;-59
2022/04/20 02:26:42;;;;;;;13.63;6.97;;;6.50;99.90;;;;;;4957872;28;20046;-59
2022/04/20 02:29:08;;;;;;;13.95;7.07;;;6.50;99.90;;;;;;4955937;28;20039;-59
2022/04/20 02:31:34;;;;;;;11.90;6.93;;;6.50;99.90;;;;;;4954053;28;20035;-59
2022/04/20 02:33:59;;;;;;;11.38;6.88;;;6.40;99.90;;;;;;4960722;28;20192;-59
2022/04/20 02:36:26;;;;;;;11.10;6.65;;;6.30;99.90;;;;;;4955891;28;20035;-59
2022/04/20 02:38:52;;;;;;;10.27;6.63;;;6.20;99.90;;;;;;4956336;29;20039;-60
2022/04/20 02:41:18;;;;;;;11.05;7.10;;;6.10;99.90;;;;;;4953090;28;20421;-60
2022/04/20 02:43:43;;;;;;;11.30;6.72;;;6.00;99.90;;;;;;4959442;28;20473;-60
2022/04/20 02:46:09;;;;;;;12.10;6.88;;;5.90;99.90;;;;;;4956005;28;20090;-59
2022/04/20 02:48:35;;;;;;;11.43;6.65;;;5.90;99.90;;;;;;4955192;28;20070;-60
2022/04/20 02:51:01;;;;;;;11.15;6.60;;;5.90;99.90;;;;;;4962466;28;20487;-59
2022/04/20 02:53:27;;;;;;;13.32;7.28;;;5.90;99.90;;;;;;4955145;28;20047;-58
2022/04/20 02:55:52;;;;;;;12.27;7.22;;;5.90;99.90;;;;;;4938434;29;20050;-58
2022/04/20 02:58:18;;;;;;;18.88;7.07;;;5.90;99.90;;;;;;4958543;28;20039;-60
2022/04/20 03:00:44;;;;;;;10.77;6.47;;;6.00;99.90;;;;;;4957176;28;20383;-59
2022/04/20 03:03:10;;;;;;;11.90;7.15;;;6.10;99.90;;;;;;4955215;28;20493;-59
2022/04/20 03:05:35;;;;;;;13.32;7.05;;;6.20;99.90;;;;;;4961878;28;20049;-57
2022/04/20 03:08:01;;;;;;;12.40;7.43;;;6.20;99.90;;;;;;4963076;28;20126;-59
2022/04/20 03:10:27;;;;;;;11.20;6.65;;;6.30;99.90;;;;;;4955085;28;20126;-59
2022/04/20 03:12:52;;;;;;;11.73;6.90;;;6.20;99.90;;;;;;4952965;28;20035;-59
2022/04/20 03:15:18;;;;;;;11.73;6.65;;;6.20;99.90;;;;;;4960355;28;20036;-59
2022/04/20 03:17:43;;;;;;;11.75;6.82;;;6.20;99.90;;;;;;4955232;28;20098;-59
2022/04/20 03:20:10;;;;;;;14.27;7.45;;;6.20;99.90;;;;;;4953284;28;20138;-59
2022/04/20 03:22:35;;;;;;;10.48;6.40;;;6.10;99.90;;;;;;4953400;28;20047;-57
2022/04/20 03:25:01;;;;;;;12.75;6.68;;;6.00;99.90;;;;;;4954597;28;20036;-59
2022/04/20 03:27:27;;;;;;;13.75;6.93;;;5.80;99.90;;;;;;4955076;28;20042;-59
2022/04/20 03:29:53;;;;;;;11.82;6.82;;;5.70;99.90;;;;;;4960642;28;20133;-59
2022/04/20 03:32:19;;;;;;;10.45;6.72;;;5.50;99.90;;;;;;4966581;28;20063;-59
2022/04/20 03:34:45;;;;;;;11.68;7.10;;;5.30;99.90;;;;;;4954396;28;20040;-59
2022/04/20 03:37:11;;;;;;;8.50;6.05;;;5.10;99.90;;;;;;4956966;28;20042;-60
2022/04/20 03:39:37;;;;;;;11.77;6.70;;;4.90;99.90;;;;;;4949680;28;20134;-59
2022/04/20 03:42:04;;;;;;;10.05;6.40;;;4.60;99.90;;;;;;4954345;28;20043;-59
2022/04/20 03:44:31;;;;;;;9.98;6.38;;;4.40;99.90;;;;;;4951888;28;20043;-58
2022/04/20 03:46:56;;;;;;;7.28;5.55;;;4.30;99.90;;;;;;4962210;28;20035;-60
2022/04/20 03:49:22;;;;;;;10.70;6.63;;;4.20;99.90;;;;;;4961098;28;20382;-58
2022/04/20 03:51:47;;;;;;;10.90;6.80;;;4.10;99.90;;;;;;4962554;28;20047;-57
2022/04/20 03:54:16;;;;;;;10.88;7.30;;;4.10;99.90;;;;;;4953390;28;20050;-59
2022/04/20 03:59:25;;;;;;;12.00;6.80;;;4.20;99.90;;;;;;4954389;28;20414;-59
2022/04/20 04:01:51;;;;;;;12.25;7.22;;;4.20;99.90;;;;;;4954598;28;20047;-59
2022/04/20 04:04:18;;;;;;;12.73;6.95;;;4.10;99.90;;;;;;4956389;28;20058;-59
2022/04/20 04:06:44;;;;;;;11.05;7.13;;;4.10;99.90;;;;;;4953946;28;20078;-58
2022/04/20 04:09:09;;;;;;;13.93;7.13;;;4.10;99.90;;;;;;4954373;29;20079;-56
2022/04/20 04:11:35;;;;;;;12.77;7.70;;;4.10;99.90;;;;;;4952017;28;20040;-59
2022/04/20 04:14:01;;;;;;;13.23;6.95;;;4.00;99.90;;;;;;4955801;28;20042;-58
2022/04/20 04:16:27;;;;;;;13.88;7.97;;;4.10;99.90;;;;;;4958434;28;20090;-59
2022/04/20 04:18:52;;;;;;;12.70;7.85;;;4.00;99.90;;;;;;4954314;28;20553;-57
2022/04/20 04:21:18;;;;;;;12.77;7.40;;;4.00;99.90;;;;;;4956596;28;20894;-56
2022/04/20 04:23:43;;;;;;;11.68;7.03;;;4.10;99.90;;;;;;4955363;28;20054;-55
2022/04/20 04:26:09;;;;;;;14.07;7.25;;;4.00;99.90;;;;;;4941921;28;20051;-58
2022/04/20 04:28:35;;;;;;;11.60;7.50;;;4.00;99.90;;;;;;4961781;28;20058;-58
2022/04/20 04:31:01;;;;;;;13.88;8.00;;;3.90;99.90;;;;;;4953053;28;20034;-57
2022/04/20 04:33:26;;;;;;;11.57;7.43;;;3.80;99.90;;;;;;4953262;28;20469;-55
2022/04/20 04:35:52;;;;;;;13.32;7.57;;;3.80;99.90;;;;;;4954059;29;20539;-57
2022/04/20 04:38:17;;;;;;;11.85;7.72;;;3.70;99.90;;;;;;4951512;28;20047;-56
2022/04/20 04:40:43;;;;;;;12.98;7.75;;;3.70;99.90;;;;;;4955581;28;20038;-56
2022/04/20 04:43:09;;;;;;;12.73;7.85;;;3.70;99.90;;;;;;4936077;29;20035;-57
2022/04/20 04:48:38;;;;;;;14.18;8.18;;;3.80;99.90;;;;;;4955978;28;20162;-58
2022/04/20 04:51:10;;;;;;;18.23;8.70;;;3.90;99.90;;;;;;4953325;28;20035;-58
2022/04/20 04:53:37;;;;;;;15.25;8.90;;;3.90;99.90;;;;;;4953332;28;20047;-56
2022/04/20 04:56:03;;;;;;;13.55;8.57;;;4.00;99.90;;;;;;4953881;29;20039;-56
2022/04/20 04:58:28;;;;;;;16.85;8.70;;;4.00;99.90;;;;;;4951697;28;20036;-56
2022/04/20 05:00:54;;;;;;;16.23;9.05;;;4.10;99.90;;;;;;4952859;28;20122;-58
2022/04/20 05:03:20;;;;;;;14.30;9.18;;;4.30;99.90;;;;;;4961987;28;20069;-56
2022/04/20 05:05:48;;;;;;;15.57;8.52;;;4.50;99.90;;;;;;4961733;28;20437;-57
2022/04/20 05:08:14;;;;;;;14.88;8.20;;;4.60;99.90;;;;;;4966513;28;20508;-58
2022/04/20 05:10:40;;;;;;;13.93;8.43;;;4.70;99.90;;;;;;4969256;28;20043;-57
2022/04/20 05:13:06;;;;;;;16.10;9.32;;;4.80;99.90;;;;;;4955974;28;20122;-57
2022/04/20 05:15:32;;;;;;;14.38;8.63;;;4.90;99.90;;;;;;4935894;29;20094;-59
2022/04/20 05:17:58;;;;;;;15.30;9.00;;;5.00;99.90;;;;;;4953673;29;20512;-56
2022/04/20 05:20:23;;;;;;;16.13;9.18;;;5.10;99.90;;;;;;4955323;28;20035;-59
2022/04/20 05:22:50;;;;;;;15.93;9.70;;;5.10;99.90;;;;;;4952610;28;20035;-56
2022/04/20 05:25:16;;;;;;;13.35;8.43;;;5.20;99.90;;;;;;4953542;29;20118;-56
2022/04/20 05:27:42;;;;;;;17.65;8.73;;;5.30;99.90;;;;;;4951715;29;20162;-58
2022/04/20 05:30:09;;;;;;;16.85;8.77;;;5.40;99.90;;;;;;4946604;28;20600;-58
2022/04/20 05:32:35;;;;;;;16.77;8.70;;;5.50;99.90;;;;;;4949437;28;20031;-52
2022/04/20 05:35:01;;;;;;;13.93;8.98;;;5.50;99.90;;;;;;4947854;28;20117;-59
2022/04/20 05:42:56;;;;;;;15.20;8.88;;;5.70;99.90;;;;;;4950159;28;20086;-59
2022/04/20 05:45:22;;;;;;;15.25;9.63;;;5.70;99.90;;;;;;4947564;28;20081;-58
2022/04/20 05:47:48;;;;;;;17.10;9.00;;;5.80;99.90;;;;;;4948957;28;20082;-58
2022/04/20 05:50:13;;;;;;;13.23;8.65;;;5.90;99.90;;;;;;4948714;28;20074;-59
2022/04/20 05:52:39;;;;;;;15.02;8.55;;;5.90;99.90;;;;;;4946181;28;20043;-58
2022/04/20 05:55:05;;;;;;;13.90;8.88;;;6.00;99.90;;;;;;4930805;29;20098;-58
2022/04/20 05:57:32;;;;;;;17.33;9.55;;;6.10;99.90;;;;;;4947909;28;20055;-58
2022/04/20 05:59:58;;;;;;;17.13;8.80;;;6.10;99.90;;;;;;4950132;28;20035;-58
2022/04/20 06:02:23;;;;;;;14.48;8.93;;;6.20;99.90;;;;;;4963591;28;20098;-59
2022/04/20 06:04:49;;;;;;;14.20;8.77;;;6.30;99.90;;;;;;4950595;28;20047;-58
2022/04/20 06:07:15;;;;;;;13.88;9.00;;;6.40;99.90;;;;;;4949660;29;20039;-57
2022/04/20 06:09:41;;;;;;;17.45;9.50;;;6.50;99.90;;;;;;4953662;28;20405;-57
2022/04/20 06:12:07;;;;;;;15.65;8.27;;;6.50;99.90;;;;;;4949025;28;20475;-57
2022/04/20 06:14:33;;;;;;;12.95;8.88;;;6.60;99.90;;;;;;4931183;29;20047;-57
2022/04/20 06:16:59;;;;;;;18.90;9.20;;;6.70;99.90;;;;;;4948264;28;20442;-58
2022/04/20 06:19:24;;;;;;;14.27;9.23;;;6.80;99.90;;;;;;4948204;28;20049;-56
2022/04/20 06:21:50;;;;;;;13.93;9.02;;;6.90;99.90;;;;;;4949494;28;20043;-59
2022/04/20 06:24:15;;;;;;;14.25;9.02;;;7.00;99.90;;;;;;4955028;28;20130;-56
2022/04/20 06:26:41;;;;;;;17.70;9.20;;;7.10;99.90;;;;;;4954252;28;20114;-56
2022/04/20 06:29:07;;;;;;;13.32;9.18;;;7.20;99.90;;;;;;4952223;28;20494;-58
2022/04/20 06:31:33;;;;;;;13.05;9.00;;;7.30;99.90;;;;;;4951887;28;20050;-57
2022/04/20 06:33:59;;;;;;;13.43;8.95;;;7.40;99.90;;;;;;4950755;29;20039;-57
2022/04/20 06:36:26;;;;;;;13.20;8.93;;;7.50;99.90;;;;;;4948756;28;20047;-57
2022/04/20 06:38:52;;;;;;;14.40;9.50;;;7.50;99.90;;;;;;4951432;28;20039;-57
2022/04/20 06:41:18;;;;;;;12.63;8.52;;;7.60;99.90;;;;;;4952420;29;20113;-57
2022/04/20 06:43:43;;;;;;;14.13;9.07;;;7.70;99.90;;;;;;4949140;28;20194;-55
2022/04/20 06:46:09;;;;;;;14.77;8.95;;;7.80;99.90;;;;;;4951981;28;20035;-58
2022/04/20 06:48:35;;;;;;;13.48;8.35;;;7.90;99.90;;;;;;4953049;28;20557;-60
2022/04/20 06:51:03;;;;;;;13.63;8.50;;;8.10;99.90;;;;;;4952886;28;20034;-58
2022/04/20 06:58:57;;;;;;;15.90;7.75;;;8.50;99.90;;;;;;4950117;28;20075;-57
2022/04/20 07:01:23;;;;;;;10.73;6.85;;;8.60;99.90;;;;;;4951550;28;20071;-57
2022/04/20 07:03:49;;;;;;;10.00;6.68;;;8.80;99.90;;;;;;4950553;28;20042;-58
2022/04/20 07:06:15;;;;;;;11.75;6.30;;;8.80;99.90;;;;;;4948706;28;20075;-56
2022/04/20 07:08:41;;;;;;;9.93;6.43;;;8.90;99.90;;;;;;4951608;28;20138;-56
2022/04/20 07:11:06;;;;;;;9.82;6.30;;;8.90;99.90;;;;;;4952667;28;20038;-58
2022/04/20 07:13:32;;;;;;;11.48;6.05;;;9.00;99.90;;;;;;4950472;28;20058;-57
2022/04/20 07:15:58;;;;;;;9.60;5.90;;;9.20;99.90;;;;;;4952559;28;20043;-57
2022/04/20 07:18:24;;;;;;;10.25;5.95;;;9.20;99.90;;;;;;4950600;28;20684;-56
2022/04/20 07:20:50;;;;;;;9.82;5.72;;;9.30;99.90;;;;;;4950964;28;20047;-53
2022/04/20 07:23:16;;;;;;;9.15;5.93;;;9.30;99.90;;;;;;4950336;29;20031;-57
2022/04/20 07:25:42;;;;;;;11.13;6.25;;;9.40;99.90;;;;;;4948318;28;20039;-57
2022/04/20 07:28:08;;;;;;;10.30;6.30;;;9.50;99.90;;;;;;4952725;28;20043;-56
2022/04/20 07:30:35;;;;;;;8.23;5.65;;;9.60;99.90;;;;;;4951971;28;20039;-58
2022/04/20 07:33:02;;;;;;;10.52;7.15;;;9.60;99.90;;;;;;4952223;28;20050;-56
2022/04/20 07:35:29;;;;;;;10.70;7.10;;;9.70;99.90;;;;;;4951154;28;20043;-54
2022/04/20 07:37:55;;;;;;;10.85;6.47;;;9.80;99.90;;;;;;4953227;28;20617;-59
2022/04/20 07:40:21;;;;;;;10.77;6.80;;;9.90;99.90;;;;;;4956365;28;20122;-56
2022/04/20 07:42:46;;;;;;;11.10;6.55;;;9.90;99.90;;;;;;4951148;28;20043;-55
2022/04/20 07:45:13;;;;;;;9.23;5.50;;;10.00;99.90;;;;;;4934304;29;20046;-57
2022/04/20 07:47:38;;;;;;;9.82;5.60;;;10.10;99.90;;;;;;4952512;28;20132;-55
2022/04/20 07:50:21;;;;;;;10.77;6.63;;;10.10;99.90;;;;;;4954822;28;20125;-57
2022/04/20 07:52:52;;;;;;;7.68;5.30;;;10.10;99.90;;;;;;4949744;28;20130;-58
2022/04/20 07:55:21;;;;;;;6.95;5.10;;;10.20;99.90;;;;;;4950989;28;20047;-55
2022/04/20 07:57:47;;;;;;;7.97;5.03;;;10.30;99.60;;;;;;4948894;28;20156;-59
2022/04/20 08:00:15;;;;;;;9.02;5.80;;;10.30;96.60;;;;;;4951379;28;20043;-56
2022/04/20 08:02:42;;;;;;;7.03;5.00;;;10.30;99.90;;;;;;4951178;28;20798;-56
2022/04/20 08:05:08;;;;;;;12.38;5.88;;;10.30;98.30;;;;;;4949255;28;20100;-56
2022/04/20 08:07:34;;;;;;;9.23;5.78;;;10.40;99.90;;;;;;4960277;28;20050;-57
2022/04/20 08:10:04;;;;;;;8.68;5.03;;;10.50;99.90;;;;;;4950509;28;20035;-56
2022/04/20 08:12:38;;;;;;;9.32;5.75;;;10.50;98.80;;;;;;4950449;29;20109;-56
2022/04/20 08:15:04;;;;;;;9.77;5.57;;;10.60;99.70;;;;;;4949962;28;20043;-55
2022/04/20 08:17:31;;;;;;;10.05;5.45;;;10.70;99.90;;;;;;4940486;29;20070;-58
2022/04/20 08:19:56;;;;;;;9.00;5.05;;;10.70;98.00;;;;;;4951389;28;20402;-55
2022/04/20 08:22:22;;;;;;;11.45;5.18;;;10.80;98.40;;;;;;4954723;28;20042;-60
2022/04/20 08:24:48;;;;;;;9.70;5.70;;;10.90;98.60;;;;;;4949395;28;20129;-58
2022/04/20 08:27:14;;;;;;;9.35;5.32;;;10.90;99.90;;;;;;4949758;28;20039;-56
2022/04/20 08:29:40;;;;;;;7.85;5.20;;;11.00;99.90;;;;;;4950823;29;20036;-56
2022/04/20 08:32:06;;;;;;;9.00;5.38;;;11.20;99.90;;;;;;4951569;28;20035;-57
2022/04/20 08:34:32;;;;;;;11.77;5.50;;;11.20;99.90;;;;;;4960692;28;20047;-58
2022/04/20 08:36:58;;;;;;;10.48;5.53;;;11.30;99.60;;;;;;4950494;28;20070;-55
2022/04/20 08:39:23;;;;;;;7.28;5.07;;;11.30;98.70;;;;;;4953388;28;20050;-56
2022/04/20 08:41:49;;;;;;;10.05;5.63;;;11.30;99.10;;;;;;4949705;28;20062;-58
2022/04/20 08:44:26;;;;;;;10.48;5.30;;;11.40;98.80;;;;;;4955202;28;20042;-58
2022/04/20 08:46:54;;;;;;;10.93;5.47;;;11.40;97.90;;;;;;4966733;28;20583;-59
2022/04/20 08:49:20;;;;;;;8.13;5.78;;;11.40;99.40;;;;;;4945496;28;20046;-60
2022/04/20 08:54:33;;;;;;;8.63;5.95;;;11.60;98.20;;;;;;4949971;28;20054;-58
2022/04/20 08:57:19;;;;;;;13.65;6.20;;;11.60;99.90;;;;;;4947431;28;20477;-56
2022/04/20 08:59:48;;;;;;;8.45;5.35;;;11.70;99.60;;;;;;4949319;28;20043;-59
2022/04/20 09:02:15;;;;;;;12.23;5.28;;;11.80;97.60;;;;;;4950728;29;20047;-57
2022/04/20 09:04:41;;;;;;;9.32;5.55;;;11.80;97.50;;;;;;4949629;29;20051;-60
2022/04/20 09:07:08;;;;;;;8.43;5.65;;;11.90;98.30;;;;;;4948230;28;20050;-58
2022/04/20 09:09:34;;;;;;;8.63;5.78;;;12.00;96.60;;;;;;4950015;28;20050;-60
2022/04/20 09:12:00;;;;;;;7.88;5.60;;;12.00;97.30;;;;;;4949293;28;20054;-59
2022/04/20 09:14:28;;;;;;;9.13;5.55;;;12.00;97.70;;;;;;4963129;28;20047;-57
2022/04/20 09:16:57;;;;;;;9.70;5.88;;;12.00;97.70;;;;;;4967268;28;20039;-59
2022/04/20 09:19:27;;;;;;;10.02;5.18;;;12.20;97.20;;;;;;4965939;28;20043;-59
2022/04/20 09:21:53;;;;;;;7.28;5.18;;;12.20;96.20;;;;;;4964819;28;20097;-57
2022/04/20 09:24:19;;;;;;;12.90;5.60;;;12.30;97.90;;;;;;4967285;28;20046;-59
2022/04/20 09:26:52;;;;;;;7.70;5.78;;;12.40;97.80;;;;;;4964442;28;20046;-58
2022/04/20 09:29:18;;;;;;;11.32;5.30;;;12.60;97.20;;;;;;4957256;28;20043;-57
2022/04/20 09:31:45;;;;;;;12.55;4.80;;;12.70;97.70;;;;;;4945823;28;20094;-57
2022/04/20 09:34:55;;;;;;;8.65;4.63;;;12.80;95.10;;;;;;4954859;28;20093;-57
2022/04/20 09:37:24;;;;;;;7.50;4.57;;;12.90;91.50;;;;;;4966896;28;20046;-58
2022/04/20 09:39:50;;;;;;;13.75;4.70;;;12.90;95.60;;;;;;4940581;28;20102;-57
2022/04/20 09:42:17;;;;;;;6.70;3.55;;;12.90;95.10;;;;;;4947221;28;20402;-59
2022/04/20 09:45:04;;;;;;;5.10;3.80;;;13.00;91.70;;;;;;4949707;28;20043;-57
2022/04/20 09:50:25;;;;;;;7.97;4.32;;;13.30;78.70;;;;;;4962658;28;20043;-59
2022/04/20 09:52:58;;;;;;;5.32;3.72;;;13.30;77.10;;;;;;4966918;28;20043;-59
2022/04/20 09:55:34;;;;;;;8.40;3.90;;;13.40;84.40;;;;;;4960970;28;20078;-59
2022/04/20 09:58:10;;;;;;;6.30;4.13;;;13.50;89.20;;;;;;4949141;28;20093;-60
2022/04/20 10:00:40;;;;;;;7.03;3.65;;;13.60;80.00;;;;;;4953500;28;20079;-56
2022/04/20 10:03:06;;;;;;;4.85;3.78;;;13.70;83.40;;;;;;4954124;28;20098;-60
2022/04/20 10:05:32;;;;;;;7.30;3.95;;;13.70;84.40;;;;;;4952682;28;20047;-57
2022/04/20 10:07:59;;;;;;;9.07;3.85;;;13.80;82.80;;;;;;4948903;28;20037;-59
2022/04/20 10:10:27;;;;;;;6.75;3.90;;;13.90;73.10;;;;;;4946456;28;20054;-58
2022/04/20 10:12:56;;;;;;;7.97;4.28;;;13.90;80.60;;;;;;4957542;28;20034;-57
2022/04/20 10:18:14;;;;;;;6.78;3.90;;;14.00;83.30;;;;;;4952529;28;20592;-58
2022/04/20 10:20:43;;;;;;;4.90;3.80;;;14.10;67.00;;;;;;4949975;28;20039;-59
2022/04/20 10:23:10;;;;;;;5.03;3.17;;;14.20;72.50;;;;;;4935652;29;20043;-60
2022/04/20 10:25:36;;;;;;;5.97;3.63;;;14.30;67.90;;;;;;4954248;28;20054;-57
2022/04/20 10:28:17;;;;;;;4.47;3.40;;;14.40;77.40;;;;;;4943460;28;20105;-60
2022/04/20 10:31:14;;;;;;;4.97;3.67;;;14.60;80.10;;;;;;4967901;28;20442;-60
2022/04/20 10:33:41;;;;;;;5.40;3.90;;;14.70;73.20;;;;;;4961623;28;20053;-61
2022/04/20 10:36:11;;;;;;;6.22;4.35;;;14.60;74.90;;;;;;4953145;28;20043;-61
2022/04/20 10:38:38;;;;;;;5.07;3.78;;;14.80;79.30;;;;;;4952253;28;20133;-60
2022/04/20 10:41:07;;;;;;;7.50;3.90;;;14.80;80.20;;;;;;4952269;28;20070;-60
2022/04/20 10:43:35;;;;;;;5.47;3.40;;;14.90;76.10;;;;;;4951947;29;20042;-60
2022/04/20 10:46:14;;;;;;;7.03;3.53;;;15.00;75.00;;;;;;4953063;28;20568;-58
2022/04/20 10:48:52;;;;;;;4.72;3.35;;;15.10;73.60;;;;;;4960939;28;20050;-60
2022/04/20 10:51:22;;;;;;;7.90;3.53;;;15.20;64.90;;;;;;4944136;28;20453;-61
2022/04/20 10:53:48;;;;;;;5.25;3.90;;;15.30;68.60;;;;;;4952045;28;20054;-61
2022/04/20 10:56:17;;;;;;;6.32;3.60;;;15.20;72.80;;;;;;4958123;28;20039;-61
2022/04/20 10:59:07;;;;;;;6.32;3.60;;;15.30;73.30;;;;;;4966536;28;20406;-61
2022/04/20 11:01:58;;;;;;;5.45;3.97;;;15.20;74.30;;;;;;4966783;28;20082;-61
2022/04/20 11:04:48;;;;;;;9.77;4.13;;;15.40;70.40;;;;;;4966718;28;21324;-60
2022/04/20 11:07:19;;;;;;;5.35;3.88;;;15.40;67.60;;;;;;4965017;28;20046;-61
2022/04/20 11:09:52;;;;;;;5.00;3.70;;;15.50;74.30;;;;;;4956049;28;20050;-60
2022/04/20 11:21:05;;;;;;;5.97;4.18;;;15.60;67.90;;;;;;4949563;28;20646;-60
2022/04/20 11:23:58;;;;;;;5.38;3.63;;;15.70;60.40;;;;;;4926734;28;20125;-59
2022/04/20 11:26:34;;;;;;;6.68;3.97;;;15.80;65.40;;;;;;4947811;28;20075;-61
2022/04/20 11:29:11;;;;;;;5.75;4.32;;;15.90;64.40;;;;;;4949421;28;20062;-60
2022/04/20 11:31:42;;;;;;;5.90;3.90;;;15.90;60.80;;;;;;4951531;28;20049;-60
2022/04/20 11:34:08;;;;;;;;;;;16.10;68.00;;;;;;4955659;28;20114;-60
2022/04/20 11:36:40;;;;;;;4.68;3.50;;;16.20;66.90;;;;;;4952649;28;19921;-60
2022/04/20 11:39:06;;;;;;;6.97;3.95;;;16.20;65.70;;;;;;4934467;29;20042;-60
2022/04/20 11:41:33;;;;;;;9.02;4.00;;;16.20;63.60;;;;;;4951974;28;20509;-60
2022/04/20 11:44:00;;;;;;;6.28;3.83;;;16.40;67.90;;;;;;4960996;28;20109;-59
2022/04/20 11:46:25;;;;;;;9.20;4.00;;;16.40;65.00;;;;;;4949821;28;20520;-61
2022/04/20 11:48:56;;;;;;;9.43;3.90;;;16.50;69.60;;;;;;4950063;28;20051;-60
2022/04/20 11:51:25;;;;;;;8.98;3.80;;;16.60;67.70;;;;;;4948163;28;20049;-61
2022/04/20 11:53:52;;;;;;;8.60;3.78;;;16.60;62.80;;;;;;4951556;28;20047;-61
2022/04/20 11:56:32;;;;;;;6.55;3.90;;;16.70;62.60;;;;;;4970783;28;20039;-61
2022/04/20 11:58:58;;;;;;;9.13;3.58;;;16.60;65.10;;;;;;4963907;28;20047;-60
2022/04/20 12:01:25;;;;;;;4.88;3.70;;;16.70;65.00;;;;;;4955811;28;20119;-60
2022/04/20 12:03:51;;;;;;;9.75;4.15;;;16.80;68.50;;;;;;4933485;29;20501;-59
2022/04/20 12:06:18;;;;;;;5.60;3.83;;;17.00;68.80;;;;;;4949564;28;20418;-60
2022/04/20 12:08:44;;;;;;;13.68;4.13;;;16.90;60.00;;;;;;4954991;28;20050;-60
2022/04/20 12:11:11;;;;;;;5.72;3.63;;;16.90;59.60;;;;;;4956212;28;20035;-61
2022/04/20 12:13:39;;;;;;;5.32;3.85;;;16.90;59.80;;;;;;4949546;28;20079;-60
2022/04/20 12:16:10;;;;;;;6.78;3.53;;;17.00;61.80;;;;;;4932139;28;20383;-61
2022/04/20 12:18:41;;;;;;;8.85;3.90;;;17.00;63.60;;;;;;4947350;28;20083;-59
2022/04/20 12:21:37;;;;;;;6.22;3.92;;;17.00;63.80;;;;;;4951901;28;20507;-61
2022/04/20 12:24:04;;;;;;;7.28;3.88;;;17.20;64.90;;;;;;4956810;28;20063;-60
2022/04/20 12:26:30;;;;;;;5.80;3.90;;;17.20;60.90;;;;;;4950399;28;20047;-60
2022/04/20 12:28:59;;;;;;;7.32;3.92;;;17.30;58.70;;;;;;4948025;28;20055;-60
2022/04/20 12:31:25;;;;;;;7.05;4.35;;;17.40;58.80;;;;;;4950525;28;20062;-61
2022/04/20 12:34:05;;;;;;;5.40;4.03;;;17.30;57.60;;;;;;4945077;28;20047;-59
2022/04/20 12:36:48;;;;;;;7.00;4.10;;;17.40;59.40;;;;;;4949992;28;20035;-60
2022/04/20 12:39:34;;;;;;;6.63;4.20;;;17.50;58.40;;;;;;4950413;29;20075;-58
2022/04/20 12:42:11;;;;;;;7.18;3.60;;;17.50;54.50;;;;;;4953554;28;20576;-60
2022/04/20 12:44:54;;;;;;;17.02;4.57;;;17.60;58.00;;;;;;4949284;28;20482;-60
2022/04/20 12:47:20;;;;;;;10.98;4.32;;;17.70;58.70;;;;;;4950233;28;20043;-59
2022/04/20 12:49:53;;;;;;;7.35;4.13;;;17.80;60.60;;;;;;4956747;28;20038;-61
2022/04/20 12:52:27;;;;;;;6.72;4.47;;;17.80;56.80;;;;;;4950059;28;20074;-60
2022/04/20 12:54:56;;;;;;;6.30;4.30;;;17.70;57.30;;;;;;4950305;28;20058;-60
2022/04/20 13:03:00;;;;;;;11.35;5.43;;;18.00;60.10;;;;;;4962839;28;20084;-60
2022/04/20 13:05:26;;;;;;;9.25;4.78;;;18.00;58.30;;;;;;4950802;28;20042;-59
2022/04/20 13:07:51;;;;;;;8.45;4.57;;;18.00;59.40;;;;;;4948207;28;20039;-60
2022/04/20 13:10:17;;;;;;;7.40;4.60;;;18.10;57.40;;;;;;4948788;28;20059;-59
2022/04/20 13:12:54;;;;;;;10.88;5.30;;;18.30;59.40;;;;;;4933637;28;20124;-58
2022/04/20 13:15:20;;;;;;;10.40;5.70;;;18.20;56.90;;;;;;4949494;28;20093;-60
2022/04/20 13:17:47;;;;;;;12.20;5.90;;;18.10;56.60;;;;;;4949532;28;20517;-60
2022/04/20 13:20:14;;;;;;;14.35;6.18;;;18.10;55.30;;;;;;4950387;29;20118;-59
2022/04/20 13:22:40;;;;;;;9.40;5.15;;;18.30;58.50;;;;;;4950277;28;20058;-58
2022/04/20 13:27:56;;;;;;;7.80;6.15;;;18.60;59.80;;;;;;4950016;28;20490;-60
2022/04/20 13:30:24;;;;;;;7.55;5.70;;;18.60;58.80;;;;;;4955447;28;20035;-60
2022/04/20 13:32:50;;;;;;;13.82;6.03;;;18.70;60.30;;;;;;4956750;28;20125;-59
2022/04/20 13:35:16;;;;;;;7.72;5.53;;;18.80;62.30;;;;;;4969455;28;20038;-60
2022/04/20 13:37:42;;;;;;;8.60;5.72;;;18.90;60.30;;;;;;4971239;28;20097;-59